sensor_id;sensor_type;location;lat;lon;timestamp;P1;durP1;ratioP1;P2;durP2;ratioP2
7211;SDS011;3647;48.792;9.802;2024-01-27T08:11:24;8.73;;;5.40;;
7211;SDS011;3647;48.792;9.802;2024-01-27T08:13:51;7.30;;;6.27;;
7211;SDS011;3647;48.792;9.802;2024-01-27T08:16:19;20.50;;;7.07;;
7211;SDS011;3647;48.792;9.802;2024-01-27T08:18:46;8.03;;;5.73;;
7211;SDS011;3647;48.792;9.802;2024-01-27T08:21:13;8.23;;;6.00;;
7211;SDS011;3647;48.792;9.802;2024-01-27T08:23:40;13.00;;;6.17;;
7211;SDS011;3647;48.792;9.802;2024-01-27T08:26:07;8.03;;;6.27;;
7211;SDS011;3647;48.792;9.802;2024-01-27T08:28:35;10.07;;;6.10;;
7211;SDS011;3647;48.792;9.802;2024-01-27T08:31:02;11.33;;;6.80;;
7211;SDS011;3647;48.792;9.802;2024-01-27T08:33:29;10.47;;;6.63;;
7211;SDS011;3647;48.792;9.802;2024-01-27T08:35:56;9.23;;;6.50;;
7211;SDS011;3647;48.792;9.802;2024-01-27T08:38:23;11.33;;;8.00;;
7211;SDS011;3647;48.792;9.802;2024-01-27T08:40:50;8.37;;;6.73;;
7211;SDS011;3647;48.792;9.802;2024-01-27T08:43:17;8.77;;;6.33;;
7211;SDS011;3647;48.792;9.802;2024-01-27T08:45:45;7.43;;;6.57;;
7211;SDS011;3647;48.792;9.802;2024-01-27T08:48:11;8.63;;;5.93;;
7211;SDS011;3647;48.792;9.802;2024-01-27T08:50:38;7.67;;;5.50;;
7211;SDS011;3647;48.792;9.802;2024-01-27T08:53:05;11.73;;;7.07;;
7211;SDS011;3647;48.792;9.802;2024-01-27T08:55:32;9.00;;;6.37;;
7211;SDS011;3647;48.792;9.802;2024-01-27T08:57:59;7.87;;;6.53;;
7211;SDS011;3647;48.792;9.802;2024-01-27T09:00:25;7.80;;;6.27;;
7211;SDS011;3647;48.792;9.802;2024-01-27T09:02:54;10.60;;;7.53;;
7211;SDS011;3647;48.792;9.802;2024-01-27T09:05:21;9.23;;;7.43;;
7211;SDS011;3647;48.792;9.802;2024-01-27T09:07:48;12.20;;;7.87;;
7211;SDS011;3647;48.792;9.802;2024-01-27T09:10:16;12.03;;;8.10;;
7211;SDS011;3647;48.792;9.802;2024-01-27T09:12:44;10.87;;;8.23;;
7211;SDS011;3647;48.792;9.802;2024-01-27T09:15:11;13.77;;;8.77;;
7211;SDS011;3647;48.792;9.802;2024-01-27T09:17:38;11.07;;;8.70;;
7211;SDS011;3647;48.792;9.802;2024-01-27T09:20:07;9.90;;;8.23;;
7211;SDS011;3647;48.792;9.802;2024-01-27T09:22:34;11.20;;;7.20;;
7211;SDS011;3647;48.792;9.802;2024-01-27T09:25:01;11.37;;;7.83;;
7211;SDS011;3647;48.792;9.802;2024-01-27T09:27:27;9.93;;;7.20;;
7211;SDS011;3647;48.792;9.802;2024-01-27T09:29:54;8.83;;;6.83;;
7211;SDS011;3647;48.792;9.802;2024-01-27T09:32:21;11.23;;;6.63;;
7211;SDS011;3647;48.792;9.802;2024-01-27T09:34:48;10.70;;;7.20;;
7211;SDS011;3647;48.792;9.802;2024-01-27T09:37:17;11.53;;;6.87;;
7211;SDS011;3647;48.792;9.802;2024-01-27T09:39:43;10.00;;;6.87;;
7211;SDS011;3647;48.792;9.802;2024-01-27T09:42:11;7.87;;;6.60;;
7211;SDS011;3647;48.792;9.802;2024-01-27T09:44:39;6.77;;;6.17;;
7211;SDS011;3647;48.792;9.802;2024-01-27T09:47:09;9.80;;;6.40;;
7211;SDS011;3647;48.792;9.802;2024-01-27T09:49:39;7.97;;;6.07;;
7211;SDS011;3647;48.792;9.802;2024-01-27T09:52:07;9.57;;;6.90;;
7211;SDS011;3647;48.792;9.802;2024-01-27T09:54:41;13.23;;;6.47;;
7211;SDS011;3647;48.792;9.802;2024-01-27T09:57:08;9.90;;;7.20;;
7211;SDS011;3647;48.792;9.802;2024-01-27T09:59:37;8.77;;;6.50;;
7211;SDS011;3647;48.792;9.802;2024-01-27T10:02:06;8.70;;;6.10;;
7211;SDS011;3647;48.792;9.802;2024-01-27T10:04:37;9.00;;;6.90;;
7211;SDS011;3647;48.792;9.802;2024-01-27T10:07:04;11.50;;;7.50;;
7211;SDS011;3647;48.792;9.802;2024-01-27T10:09:31;13.77;;;8.47;;
7211;SDS011;3647;48.792;9.802;2024-01-27T10:11:59;10.27;;;8.13;;
7211;SDS011;3647;48.792;9.802;2024-01-27T10:14:37;10.00;;;7.10;;
7211;SDS011;3647;48.792;9.802;2024-01-27T10:17:04;12.70;;;7.50;;
7211;SDS011;3647;48.792;9.802;2024-01-27T10:19:31;9.07;;;6.97;;
7211;SDS011;3647;48.792;9.802;2024-01-27T10:21:59;9.13;;;6.20;;
7211;SDS011;3647;48.792;9.802;2024-01-27T10:24:27;11.23;;;7.00;;
7211;SDS011;3647;48.792;9.802;2024-01-27T10:26:59;12.50;;;7.10;;
7211;SDS011;3647;48.792;9.802;2024-01-27T10:29:26;8.00;;;6.13;;
7211;SDS011;3647;48.792;9.802;2024-01-27T10:31:53;12.33;;;6.37;;
7211;SDS011;3647;48.792;9.802;2024-01-27T10:34:20;10.93;;;6.43;;
7211;SDS011;3647;48.792;9.802;2024-01-27T10:36:47;7.87;;;5.43;;
7211;SDS011;3647;48.792;9.802;2024-01-27T10:39:16;6.30;;;5.00;;
7211;SDS011;3647;48.792;9.802;2024-01-27T10:41:45;9.03;;;5.40;;
7211;SDS011;3647;48.792;9.802;2024-01-27T10:44:14;9.27;;;6.03;;
7211;SDS011;3647;48.792;9.802;2024-01-27T10:46:42;6.53;;;4.73;;
7211;SDS011;3647;48.792;9.802;2024-01-27T10:49:12;8.60;;;5.43;;
7211;SDS011;3647;48.792;9.802;2024-01-27T10:51:41;6.63;;;5.83;;
7211;SDS011;3647;48.792;9.802;2024-01-27T10:54:11;14.43;;;5.97;;
7211;SDS011;3647;48.792;9.802;2024-01-27T10:56:42;7.30;;;4.80;;
7211;SDS011;3647;48.792;9.802;2024-01-27T10:59:10;7.37;;;3.90;;
7211;SDS011;3647;48.792;9.802;2024-01-27T11:01:41;5.23;;;3.70;;
7211;SDS011;3647;48.792;9.802;2024-01-27T11:04:10;5.17;;;3.10;;
7211;SDS011;3647;48.792;9.802;2024-01-27T11:06:39;6.43;;;3.70;;
7211;SDS011;3647;48.792;9.802;2024-01-27T11:09:08;7.07;;;3.53;;
7211;SDS011;3647;48.792;9.802;2024-01-27T11:11:36;9.47;;;3.83;;
7211;SDS011;3647;48.792;9.802;2024-01-27T11:14:05;6.03;;;3.80;;
7211;SDS011;3647;48.792;9.802;2024-01-27T11:16:33;5.90;;;3.23;;
7211;SDS011;3647;48.792;9.802;2024-01-27T11:19:03;7.07;;;3.57;;
7211;SDS011;3647;48.792;9.802;2024-01-27T11:21:30;5.67;;;3.50;;
7211;SDS011;3647;48.792;9.802;2024-01-27T11:23:56;7.37;;;3.67;;
7211;SDS011;3647;48.792;9.802;2024-01-27T11:26:23;8.27;;;3.30;;
7211;SDS011;3647;48.792;9.802;2024-01-27T11:28:51;3.83;;;3.47;;
7211;SDS011;3647;48.792;9.802;2024-01-27T11:31:18;3.50;;;3.13;;
7211;SDS011;3647;48.792;9.802;2024-01-27T11:33:47;6.23;;;4.17;;
7211;SDS011;3647;48.792;9.802;2024-01-27T11:36:21;8.87;;;3.43;;
7211;SDS011;3647;48.792;9.802;2024-01-27T11:38:49;6.93;;;4.20;;
7211;SDS011;3647;48.792;9.802;2024-01-27T11:41:23;6.30;;;3.60;;
7211;SDS011;3647;48.792;9.802;2024-01-27T11:43:51;6.83;;;3.87;;
7211;SDS011;3647;48.792;9.802;2024-01-27T11:46:18;5.67;;;3.43;;
7211;SDS011;3647;48.792;9.802;2024-01-27T11:48:46;5.93;;;3.67;;
7211;SDS011;3647;48.792;9.802;2024-01-27T11:51:13;7.90;;;3.87;;
7211;SDS011;3647;48.792;9.802;2024-01-27T11:53:42;9.77;;;3.03;;
7211;SDS011;3647;48.792;9.802;2024-01-27T11:56:11;10.33;;;3.20;;
7211;SDS011;3647;48.792;9.802;2024-01-27T11:58:45;4.73;;;3.13;;
7211;SDS011;3647;48.792;9.802;2024-01-27T12:01:12;3.97;;;2.80;;
7211;SDS011;3647;48.792;9.802;2024-01-27T12:03:39;7.43;;;3.47;;
7211;SDS011;3647;48.792;9.802;2024-01-27T12:06:07;6.20;;;3.30;;
7211;SDS011;3647;48.792;9.802;2024-01-27T12:08:34;3.90;;;3.07;;
7211;SDS011;3647;48.792;9.802;2024-01-27T12:11:02;4.70;;;2.77;;
7211;SDS011;3647;48.792;9.802;2024-01-27T12:13:29;5.00;;;3.53;;
7211;SDS011;3647;48.792;9.802;2024-01-27T12:15:56;4.07;;;2.87;;
7211;SDS011;3647;48.792;9.802;2024-01-27T12:18:23;3.97;;;2.83;;
7211;SDS011;3647;48.792;9.802;2024-01-27T12:20:54;4.47;;;2.80;;
7211;SDS011;3647;48.792;9.802;2024-01-27T12:23:22;5.00;;;2.30;;
7211;SDS011;3647;48.792;9.802;2024-01-27T12:25:52;3.40;;;3.07;;
7211;SDS011;3647;48.792;9.802;2024-01-27T12:28:21;5.37;;;2.60;;
7211;SDS011;3647;48.792;9.802;2024-01-27T12:30:48;3.13;;;2.73;;
7211;SDS011;3647;48.792;9.802;2024-01-27T12:33:16;5.37;;;2.63;;
7211;SDS011;3647;48.792;9.802;2024-01-27T12:35:44;5.20;;;2.43;;
7211;SDS011;3647;48.792;9.802;2024-01-27T12:38:11;8.63;;;2.33;;
7211;SDS011;3647;48.792;9.802;2024-01-27T12:40:38;2.87;;;2.60;;
7211;SDS011;3647;48.792;9.802;2024-01-27T12:43:05;4.23;;;2.50;;
7211;SDS011;3647;48.792;9.802;2024-01-27T12:45:33;2.90;;;2.70;;
7211;SDS011;3647;48.792;9.802;2024-01-27T12:48:01;3.70;;;2.60;;
7211;SDS011;3647;48.792;9.802;2024-01-27T12:50:30;5.43;;;2.70;;
7211;SDS011;3647;48.792;9.802;2024-01-27T12:52:57;4.97;;;2.63;;
7211;SDS011;3647;48.792;9.802;2024-01-27T12:55:24;3.07;;;2.77;;
7211;SDS011;3647;48.792;9.802;2024-01-27T12:57:51;4.00;;;2.60;;
7211;SDS011;3647;48.792;9.802;2024-01-27T13:00:18;4.90;;;2.80;;
7211;SDS011;3647;48.792;9.802;2024-01-27T13:02:46;4.77;;;2.97;;
7211;SDS011;3647;48.792;9.802;2024-01-27T13:05:13;3.23;;;2.63;;
7211;SDS011;3647;48.792;9.802;2024-01-27T13:07:39;3.83;;;2.40;;
7211;SDS011;3647;48.792;9.802;2024-01-27T13:10:07;4.20;;;3.00;;
7211;SDS011;3647;48.792;9.802;2024-01-27T13:12:34;3.73;;;2.63;;
7211;SDS011;3647;48.792;9.802;2024-01-27T13:15:01;4.57;;;3.03;;
7211;SDS011;3647;48.792;9.802;2024-01-27T13:17:28;5.80;;;2.73;;
7211;SDS011;3647;48.792;9.802;2024-01-27T13:19:56;4.73;;;2.70;;
7211;SDS011;3647;48.792;9.802;2024-01-27T13:22:23;6.33;;;2.60;;
7211;SDS011;3647;48.792;9.802;2024-01-27T13:24:50;4.50;;;2.70;;
7211;SDS011;3647;48.792;9.802;2024-01-27T13:27:17;4.77;;;2.90;;
7211;SDS011;3647;48.792;9.802;2024-01-27T13:29:47;2.30;;;2.20;;
7211;SDS011;3647;48.792;9.802;2024-01-27T13:32:14;5.57;;;2.77;;
7211;SDS011;3647;48.792;9.802;2024-01-27T13:34:41;3.87;;;2.70;;
7211;SDS011;3647;48.792;9.802;2024-01-27T13:37:09;3.13;;;2.73;;
7211;SDS011;3647;48.792;9.802;2024-01-27T13:39:36;6.67;;;2.90;;
7211;SDS011;3647;48.792;9.802;2024-01-27T13:42:03;6.73;;;2.73;;
7211;SDS011;3647;48.792;9.802;2024-01-27T13:44:31;6.67;;;2.97;;
7211;SDS011;3647;48.792;9.802;2024-01-27T13:47:00;4.50;;;2.50;;
7211;SDS011;3647;48.792;9.802;2024-01-27T13:49:27;6.67;;;2.80;;
7211;SDS011;3647;48.792;9.802;2024-01-27T13:51:54;3.03;;;2.73;;
7211;SDS011;3647;48.792;9.802;2024-01-27T13:54:22;5.07;;;2.63;;
7211;SDS011;3647;48.792;9.802;2024-01-27T13:56:48;3.97;;;2.57;;
7211;SDS011;3647;48.792;9.802;2024-01-27T13:59:15;4.37;;;3.97;;
7211;SDS011;3647;48.792;9.802;2024-01-27T14:01:42;3.57;;;3.27;;
7211;SDS011;3647;48.792;9.802;2024-01-27T14:04:09;5.07;;;3.00;;
7211;SDS011;3647;48.792;9.802;2024-01-27T14:06:36;7.30;;;2.83;;
7211;SDS011;3647;48.792;9.802;2024-01-27T14:09:03;4.60;;;3.00;;
7211;SDS011;3647;48.792;9.802;2024-01-27T14:11:31;3.53;;;2.70;;
7211;SDS011;3647;48.792;9.802;2024-01-27T14:13:58;8.60;;;2.97;;
7211;SDS011;3647;48.792;9.802;2024-01-27T14:16:25;3.63;;;2.90;;
7211;SDS011;3647;48.792;9.802;2024-01-27T14:18:53;5.47;;;2.70;;
7211;SDS011;3647;48.792;9.802;2024-01-27T14:21:20;3.50;;;2.87;;
7211;SDS011;3647;48.792;9.802;2024-01-27T14:23:48;4.43;;;2.57;;
7211;SDS011;3647;48.792;9.802;2024-01-27T14:26:21;3.53;;;2.73;;
7211;SDS011;3647;48.792;9.802;2024-01-27T14:28:49;4.73;;;2.47;;
7211;SDS011;3647;48.792;9.802;2024-01-27T14:31:16;3.97;;;2.20;;
7211;SDS011;3647;48.792;9.802;2024-01-27T14:33:43;5.30;;;2.83;;
7211;SDS011;3647;48.792;9.802;2024-01-27T14:36:10;3.20;;;2.47;;
7211;SDS011;3647;48.792;9.802;2024-01-27T14:38:37;2.93;;;2.17;;
7211;SDS011;3647;48.792;9.802;2024-01-27T14:41:05;3.87;;;2.47;;
7211;SDS011;3647;48.792;9.802;2024-01-27T14:43:32;4.37;;;1.93;;
7211;SDS011;3647;48.792;9.802;2024-01-27T14:46:01;4.10;;;2.30;;
7211;SDS011;3647;48.792;9.802;2024-01-27T14:48:27;4.37;;;1.93;;
7211;SDS011;3647;48.792;9.802;2024-01-27T14:50:55;5.17;;;2.07;;
7211;SDS011;3647;48.792;9.802;2024-01-27T14:53:24;3.87;;;2.20;;
7211;SDS011;3647;48.792;9.802;2024-01-27T14:55:51;5.93;;;2.20;;
7211;SDS011;3647;48.792;9.802;2024-01-27T14:58:18;2.33;;;1.90;;
7211;SDS011;3647;48.792;9.802;2024-01-27T15:00:45;2.90;;;1.70;;
7211;SDS011;3647;48.792;9.802;2024-01-27T15:03:18;2.67;;;2.37;;
7211;SDS011;3647;48.792;9.802;2024-01-27T15:05:46;2.90;;;1.93;;
7211;SDS011;3647;48.792;9.802;2024-01-27T15:08:13;2.40;;;2.20;;
7211;SDS011;3647;48.792;9.802;2024-01-27T15:10:40;7.83;;;2.30;;
7211;SDS011;3647;48.792;9.802;2024-01-27T15:13:08;5.20;;;3.70;;
7211;SDS011;3647;48.792;9.802;2024-01-27T15:15:35;3.13;;;2.33;;
7211;SDS011;3647;48.792;9.802;2024-01-27T15:18:02;2.03;;;1.90;;
7211;SDS011;3647;48.792;9.802;2024-01-27T15:20:31;2.33;;;2.13;;
7211;SDS011;3647;48.792;9.802;2024-01-27T15:22:58;4.80;;;2.40;;
7211;SDS011;3647;48.792;9.802;2024-01-27T15:25:25;3.17;;;2.73;;
7211;SDS011;3647;48.792;9.802;2024-01-27T15:27:52;4.83;;;2.73;;
7211;SDS011;3647;48.792;9.802;2024-01-27T15:30:19;2.50;;;2.20;;
7211;SDS011;3647;48.792;9.802;2024-01-27T15:32:46;3.20;;;2.43;;
7211;SDS011;3647;48.792;9.802;2024-01-27T15:35:13;3.20;;;2.20;;
7211;SDS011;3647;48.792;9.802;2024-01-27T15:37:41;4.83;;;2.87;;
7211;SDS011;3647;48.792;9.802;2024-01-27T15:40:08;5.90;;;3.00;;
7211;SDS011;3647;48.792;9.802;2024-01-27T15:42:36;7.27;;;4.13;;
7211;SDS011;3647;48.792;9.802;2024-01-27T15:45:03;10.17;;;4.30;;
7211;SDS011;3647;48.792;9.802;2024-01-27T15:47:30;5.60;;;3.00;;
7211;SDS011;3647;48.792;9.802;2024-01-27T15:49:57;2.80;;;2.27;;
7211;SDS011;3647;48.792;9.802;2024-01-27T15:52:28;2.80;;;2.43;;
7211;SDS011;3647;48.792;9.802;2024-01-27T15:54:57;4.70;;;2.33;;
7211;SDS011;3647;48.792;9.802;2024-01-27T15:57:23;3.63;;;2.23;;
7211;SDS011;3647;48.792;9.802;2024-01-27T15:59:52;3.43;;;2.00;;
7211;SDS011;3647;48.792;9.802;2024-01-27T16:02:20;2.13;;;2.03;;
7211;SDS011;3647;48.792;9.802;2024-01-27T16:04:47;3.43;;;2.30;;
7211;SDS011;3647;48.792;9.802;2024-01-27T16:07:14;5.70;;;4.10;;
7211;SDS011;3647;48.792;9.802;2024-01-27T16:09:43;5.67;;;4.70;;
7211;SDS011;3647;48.792;9.802;2024-01-27T16:12:13;12.00;;;6.70;;
7211;SDS011;3647;48.792;9.802;2024-01-27T16:14:40;10.83;;;5.17;;
7211;SDS011;3647;48.792;9.802;2024-01-27T16:17:07;6.17;;;4.10;;
7211;SDS011;3647;48.792;9.802;2024-01-27T16:19:34;5.63;;;4.27;;
7211;SDS011;3647;48.792;9.802;2024-01-27T16:22:00;7.70;;;4.03;;
7211;SDS011;3647;48.792;9.802;2024-01-27T16:24:27;4.47;;;3.80;;
7211;SDS011;3647;48.792;9.802;2024-01-27T16:26:54;4.37;;;3.77;;
7211;SDS011;3647;48.792;9.802;2024-01-27T16:29:22;6.97;;;3.77;;
7211;SDS011;3647;48.792;9.802;2024-01-27T16:31:49;6.67;;;4.37;;
7211;SDS011;3647;48.792;9.802;2024-01-27T16:34:16;6.73;;;5.00;;
7211;SDS011;3647;48.792;9.802;2024-01-27T16:36:43;15.60;;;5.60;;
7211;SDS011;3647;48.792;9.802;2024-01-27T16:39:09;5.93;;;4.50;;
7211;SDS011;3647;48.792;9.802;2024-01-27T16:41:36;4.50;;;4.07;;
7211;SDS011;3647;48.792;9.802;2024-01-27T16:44:03;15.80;;;9.90;;
7211;SDS011;3647;48.792;9.802;2024-01-27T16:46:31;13.07;;;7.50;;
7211;SDS011;3647;48.792;9.802;2024-01-27T16:48:59;12.47;;;7.03;;
7211;SDS011;3647;48.792;9.802;2024-01-27T16:51:26;11.70;;;7.80;;
7211;SDS011;3647;48.792;9.802;2024-01-27T16:53:53;9.90;;;7.10;;
7211;SDS011;3647;48.792;9.802;2024-01-27T16:56:19;10.07;;;5.10;;
7211;SDS011;3647;48.792;9.802;2024-01-27T16:58:46;8.63;;;4.93;;
7211;SDS011;3647;48.792;9.802;2024-01-27T17:01:14;8.80;;;5.57;;
7211;SDS011;3647;48.792;9.802;2024-01-27T17:03:43;5.73;;;4.90;;
7211;SDS011;3647;48.792;9.802;2024-01-27T17:06:10;7.97;;;5.30;;
7211;SDS011;3647;48.792;9.802;2024-01-27T17:08:37;8.17;;;4.23;;
7211;SDS011;3647;48.792;9.802;2024-01-27T17:11:03;7.50;;;5.53;;
7211;SDS011;3647;48.792;9.802;2024-01-27T17:13:30;6.97;;;5.00;;
7211;SDS011;3647;48.792;9.802;2024-01-27T17:15:57;5.77;;;4.67;;
7211;SDS011;3647;48.792;9.802;2024-01-27T17:18:24;8.20;;;4.77;;
7211;SDS011;3647;48.792;9.802;2024-01-27T17:20:52;5.90;;;5.10;;
7211;SDS011;3647;48.792;9.802;2024-01-27T17:23:19;11.03;;;5.37;;
7211;SDS011;3647;48.792;9.802;2024-01-27T17:25:47;5.20;;;4.50;;
7211;SDS011;3647;48.792;9.802;2024-01-27T17:28:13;8.00;;;4.77;;
7211;SDS011;3647;48.792;9.802;2024-01-27T17:30:41;7.83;;;5.03;;
7211;SDS011;3647;48.792;9.802;2024-01-27T17:33:07;7.40;;;4.50;;
7211;SDS011;3647;48.792;9.802;2024-01-27T17:35:34;6.43;;;5.37;;
7211;SDS011;3647;48.792;9.802;2024-01-27T17:38:02;12.70;;;7.27;;
7211;SDS011;3647;48.792;9.802;2024-01-27T17:40:29;14.43;;;8.40;;
7211;SDS011;3647;48.792;9.802;2024-01-27T17:42:58;12.47;;;7.03;;
7211;SDS011;3647;48.792;9.802;2024-01-27T17:45:27;8.07;;;6.33;;
7211;SDS011;3647;48.792;9.802;2024-01-27T17:47:54;10.87;;;6.83;;
7211;SDS011;3647;48.792;9.802;2024-01-27T17:50:21;10.60;;;6.23;;
7211;SDS011;3647;48.792;9.802;2024-01-27T17:52:48;11.33;;;6.30;;
7211;SDS011;3647;48.792;9.802;2024-01-27T17:55:17;13.87;;;7.63;;
7211;SDS011;3647;48.792;9.802;2024-01-27T17:57:44;9.73;;;6.40;;
7211;SDS011;3647;48.792;9.802;2024-01-27T18:00:12;7.20;;;5.90;;
7211;SDS011;3647;48.792;9.802;2024-01-27T18:02:39;5.60;;;4.13;;
7211;SDS011;3647;48.792;9.802;2024-01-27T18:05:06;9.27;;;5.47;;
7211;SDS011;3647;48.792;9.802;2024-01-27T18:07:34;9.00;;;5.77;;
7211;SDS011;3647;48.792;9.802;2024-01-27T18:10:01;9.50;;;6.47;;
7211;SDS011;3647;48.792;9.802;2024-01-27T18:12:29;9.50;;;6.57;;
7211;SDS011;3647;48.792;9.802;2024-01-27T18:14:56;8.60;;;6.17;;
7211;SDS011;3647;48.792;9.802;2024-01-27T18:17:22;10.20;;;6.17;;
7211;SDS011;3647;48.792;9.802;2024-01-27T18:19:49;8.43;;;6.00;;
7211;SDS011;3647;48.792;9.802;2024-01-27T18:22:17;8.77;;;5.93;;
7211;SDS011;3647;48.792;9.802;2024-01-27T18:24:44;17.13;;;9.23;;
7211;SDS011;3647;48.792;9.802;2024-01-27T18:27:10;10.40;;;7.10;;
7211;SDS011;3647;48.792;9.802;2024-01-27T18:29:40;12.83;;;7.53;;
7211;SDS011;3647;48.792;9.802;2024-01-27T18:32:07;9.40;;;6.30;;
7211;SDS011;3647;48.792;9.802;2024-01-27T18:34:34;13.23;;;7.37;;
7211;SDS011;3647;48.792;9.802;2024-01-27T18:37:02;11.40;;;7.00;;
7211;SDS011;3647;48.792;9.802;2024-01-27T18:39:29;10.33;;;6.53;;
7211;SDS011;3647;48.792;9.802;2024-01-27T18:41:56;9.87;;;6.40;;
7211;SDS011;3647;48.792;9.802;2024-01-27T18:44:23;9.57;;;6.37;;
7211;SDS011;3647;48.792;9.802;2024-01-27T18:46:51;8.07;;;5.97;;
7211;SDS011;3647;48.792;9.802;2024-01-27T18:49:18;11.57;;;6.53;;
7211;SDS011;3647;48.792;9.802;2024-01-27T18:51:45;11.37;;;7.30;;
7211;SDS011;3647;48.792;9.802;2024-01-27T18:54:14;11.33;;;6.83;;
7211;SDS011;3647;48.792;9.802;2024-01-27T18:56:41;14.13;;;8.43;;
7211;SDS011;3647;48.792;9.802;2024-01-27T18:59:08;14.37;;;7.67;;
7211;SDS011;3647;48.792;9.802;2024-01-27T19:01:35;11.00;;;7.70;;
7211;SDS011;3647;48.792;9.802;2024-01-27T19:04:03;9.50;;;7.03;;
7211;SDS011;3647;48.792;9.802;2024-01-27T19:06:30;11.33;;;7.57;;
7211;SDS011;3647;48.792;9.802;2024-01-27T19:08:57;15.67;;;10.10;;
7211;SDS011;3647;48.792;9.802;2024-01-27T19:11:25;14.47;;;9.13;;
7211;SDS011;3647;48.792;9.802;2024-01-27T19:13:52;12.80;;;8.27;;
7211;SDS011;3647;48.792;9.802;2024-01-27T19:16:19;12.20;;;9.07;;
7211;SDS011;3647;48.792;9.802;2024-01-27T19:18:45;16.40;;;9.53;;
7211;SDS011;3647;48.792;9.802;2024-01-27T19:21:14;18.20;;;10.57;;
7211;SDS011;3647;48.792;9.802;2024-01-27T19:23:41;14.23;;;9.57;;
7211;SDS011;3647;48.792;9.802;2024-01-27T19:26:08;12.00;;;7.67;;
7211;SDS011;3647;48.792;9.802;2024-01-27T19:28:35;15.05;;;9.95;;
7211;SDS011;3647;48.792;9.802;2024-01-27T19:31:02;13.77;;;9.60;;
7211;SDS011;3647;48.792;9.802;2024-01-27T19:33:29;12.40;;;8.27;;
7211;SDS011;3647;48.792;9.802;2024-01-27T19:35:55;11.30;;;7.27;;
7211;SDS011;3647;48.792;9.802;2024-01-27T19:38:24;14.33;;;9.27;;
7211;SDS011;3647;48.792;9.802;2024-01-27T19:40:51;11.53;;;8.13;;
7211;SDS011;3647;48.792;9.802;2024-01-27T19:43:17;15.23;;;7.83;;
7211;SDS011;3647;48.792;9.802;2024-01-27T19:45:44;12.33;;;8.57;;
7211;SDS011;3647;48.792;9.802;2024-01-27T19:48:11;17.23;;;8.20;;
7211;SDS011;3647;48.792;9.802;2024-01-27T19:50:38;13.27;;;7.53;;
7211;SDS011;3647;48.792;9.802;2024-01-27T19:53:05;18.43;;;9.90;;
7211;SDS011;3647;48.792;9.802;2024-01-27T19:55:36;15.10;;;8.33;;
7211;SDS011;3647;48.792;9.802;2024-01-27T19:58:03;10.63;;;7.83;;
7211;SDS011;3647;48.792;9.802;2024-01-27T20:00:30;10.67;;;7.07;;
7211;SDS011;3647;48.792;9.802;2024-01-27T20:02:58;10.77;;;8.50;;
7211;SDS011;3647;48.792;9.802;2024-01-27T20:05:25;14.37;;;8.57;;
7211;SDS011;3647;48.792;9.802;2024-01-27T20:07:52;14.07;;;7.40;;
7211;SDS011;3647;48.792;9.802;2024-01-27T20:10:19;18.17;;;7.37;;
7211;SDS011;3647;48.792;9.802;2024-01-27T20:12:47;8.17;;;7.23;;
7211;SDS011;3647;48.792;9.802;2024-01-27T20:15:15;17.17;;;8.17;;
7211;SDS011;3647;48.792;9.802;2024-01-27T20:17:42;15.37;;;9.10;;
7211;SDS011;3647;48.792;9.802;2024-01-27T20:20:10;13.53;;;7.67;;
7211;SDS011;3647;48.792;9.802;2024-01-27T20:22:37;10.57;;;7.60;;
7211;SDS011;3647;48.792;9.802;2024-01-27T20:25:04;11.00;;;7.80;;
7211;SDS011;3647;48.792;9.802;2024-01-27T20:27:31;16.70;;;8.87;;
7211;SDS011;3647;48.792;9.802;2024-01-27T20:29:59;11.97;;;8.20;;
7211;SDS011;3647;48.792;9.802;2024-01-27T20:32:26;12.80;;;8.23;;
7211;SDS011;3647;48.792;9.802;2024-01-27T20:34:53;14.37;;;8.57;;
7211;SDS011;3647;48.792;9.802;2024-01-27T20:37:19;16.40;;;7.33;;
7211;SDS011;3647;48.792;9.802;2024-01-27T20:39:46;12.93;;;7.50;;
7211;SDS011;3647;48.792;9.802;2024-01-27T20:42:14;11.83;;;7.53;;
7211;SDS011;3647;48.792;9.802;2024-01-27T20:44:42;17.53;;;9.57;;
7211;SDS011;3647;48.792;9.802;2024-01-27T20:47:10;24.17;;;9.77;;
7211;SDS011;3647;48.792;9.802;2024-01-27T20:49:37;11.90;;;7.80;;
7211;SDS011;3647;48.792;9.802;2024-01-27T20:52:04;14.30;;;9.63;;
7211;SDS011;3647;48.792;9.802;2024-01-27T20:54:31;14.27;;;8.80;;
7211;SDS011;3647;48.792;9.802;2024-01-27T20:56:58;10.30;;;7.43;;
7211;SDS011;3647;48.792;9.802;2024-01-27T20:59:25;18.00;;;9.03;;
7211;SDS011;3647;48.792;9.802;2024-01-27T21:01:52;16.37;;;10.33;;
7211;SDS011;3647;48.792;9.802;2024-01-27T21:04:20;24.67;;;12.60;;
7211;SDS011;3647;48.792;9.802;2024-01-27T21:06:50;14.20;;;9.90;;
7211;SDS011;3647;48.792;9.802;2024-01-27T21:09:17;13.70;;;8.87;;
7211;SDS011;3647;48.792;9.802;2024-01-27T21:11:43;23.17;;;11.90;;
7211;SDS011;3647;48.792;9.802;2024-01-27T21:14:10;18.23;;;10.40;;
7211;SDS011;3647;48.792;9.802;2024-01-27T21:16:37;17.13;;;10.63;;
7211;SDS011;3647;48.792;9.802;2024-01-27T21:19:04;16.10;;;9.67;;
7211;SDS011;3647;48.792;9.802;2024-01-27T21:21:32;15.97;;;9.97;;
7211;SDS011;3647;48.792;9.802;2024-01-27T21:23:59;38.13;;;14.27;;
7211;SDS011;3647;48.792;9.802;2024-01-27T21:26:26;26.13;;;12.27;;
7211;SDS011;3647;48.792;9.802;2024-01-27T21:28:53;18.00;;;10.03;;
7211;SDS011;3647;48.792;9.802;2024-01-27T21:31:20;14.97;;;8.67;;
7211;SDS011;3647;48.792;9.802;2024-01-27T21:33:47;13.60;;;8.30;;
7211;SDS011;3647;48.792;9.802;2024-01-27T21:36:14;25.50;;;11.63;;
7211;SDS011;3647;48.792;9.802;2024-01-27T21:38:42;18.90;;;10.00;;
7211;SDS011;3647;48.792;9.802;2024-01-27T21:41:09;11.00;;;8.47;;
7211;SDS011;3647;48.792;9.802;2024-01-27T21:43:36;10.23;;;8.30;;
7211;SDS011;3647;48.792;9.802;2024-01-27T21:46:03;10.93;;;8.23;;
7211;SDS011;3647;48.792;9.802;2024-01-27T21:48:30;12.53;;;7.73;;
7211;SDS011;3647;48.792;9.802;2024-01-27T21:50:57;13.83;;;7.87;;
7211;SDS011;3647;48.792;9.802;2024-01-27T21:53:24;11.80;;;7.47;;
7211;SDS011;3647;48.792;9.802;2024-01-27T21:55:52;10.93;;;7.57;;
7211;SDS011;3647;48.792;9.802;2024-01-27T21:58:19;14.87;;;7.83;;
7211;SDS011;3647;48.792;9.802;2024-01-27T22:00:45;13.47;;;7.73;;
7211;SDS011;3647;48.792;9.802;2024-01-27T22:03:13;13.33;;;7.37;;
7211;SDS011;3647;48.792;9.802;2024-01-27T22:05:40;9.70;;;7.07;;
7211;SDS011;3647;48.792;9.802;2024-01-27T22:08:07;13.00;;;6.80;;
7211;SDS011;3647;48.792;9.802;2024-01-27T22:10:37;7.90;;;7.07;;
7211;SDS011;3647;48.792;9.802;2024-01-27T22:13:05;12.77;;;7.40;;
7211;SDS011;3647;48.792;9.802;2024-01-27T22:15:33;17.67;;;8.40;;
7211;SDS011;3647;48.792;9.802;2024-01-27T22:18:04;17.93;;;9.20;;
7211;SDS011;3647;48.792;9.802;2024-01-27T22:20:31;16.20;;;8.13;;
7211;SDS011;3647;48.792;9.802;2024-01-27T22:22:57;13.07;;;7.73;;
7211;SDS011;3647;48.792;9.802;2024-01-27T22:25:24;12.10;;;6.77;;
7211;SDS011;3647;48.792;9.802;2024-01-27T22:27:52;6.33;;;5.50;;
7211;SDS011;3647;48.792;9.802;2024-01-27T22:30:21;9.17;;;7.37;;
7211;SDS011;3647;48.792;9.802;2024-01-27T22:32:48;8.83;;;6.37;;
7211;SDS011;3647;48.792;9.802;2024-01-27T22:35:15;8.07;;;5.53;;
